sensor_id;sensor_type;location;lat;lon;timestamp;P1;durP1;ratioP1;P2;durP2;ratioP2
21731;SDS011;11028;51.156;17.130;2022-12-11T00:05:58;103.40;;;39.13;;
21731;SDS011;11028;51.156;17.130;2022-12-11T00:13:15;105.07;;;37.85;;
21731;SDS011;11028;51.156;17.130;2022-12-11T00:20:33;106.45;;;39.65;;
21731;SDS011;11028;51.156;17.130;2022-12-11T00:27:50;104.97;;;39.22;;
21731;SDS011;11028;51.156;17.130;2022-12-11T00:35:07;94.28;;;37.58;;
21731;SDS011;11028;51.156;17.130;2022-12-11T00:42:26;96.05;;;37.10;;
21731;SDS011;11028;51.156;17.130;2022-12-11T00:49:43;88.72;;;35.67;;
21731;SDS011;11028;51.156;17.130;2022-12-11T00:57:00;95.05;;;37.38;;
21731;SDS011;11028;51.156;17.130;2022-12-11T01:04:18;101.88;;;36.33;;
21731;SDS011;11028;51.156;17.130;2022-12-11T01:11:35;91.05;;;35.67;;
21731;SDS011;11028;51.156;17.130;2022-12-11T01:18:52;93.20;;;36.85;;
21731;SDS011;11028;51.156;17.130;2022-12-11T01:26:12;90.15;;;34.88;;
21731;SDS011;11028;51.156;17.130;2022-12-11T01:33:30;93.57;;;36.80;;
21731;SDS011;11028;51.156;17.130;2022-12-11T01:40:47;93.28;;;36.47;;
21731;SDS011;11028;51.156;17.130;2022-12-11T01:48:07;86.18;;;35.50;;
21731;SDS011;11028;51.156;17.130;2022-12-11T01:55:25;93.10;;;36.40;;
21731;SDS011;11028;51.156;17.130;2022-12-11T02:02:42;88.05;;;35.78;;
21731;SDS011;11028;51.156;17.130;2022-12-11T02:10:01;95.95;;;34.45;;
21731;SDS011;11028;51.156;17.130;2022-12-11T02:17:18;97.28;;;37.60;;
21731;SDS011;11028;51.156;17.130;2022-12-11T02:24:42;94.15;;;35.97;;
21731;SDS011;11028;51.156;17.130;2022-12-11T02:32:07;90.10;;;35.10;;
21731;SDS011;11028;51.156;17.130;2022-12-11T02:39:27;93.47;;;36.83;;
21731;SDS011;11028;51.156;17.130;2022-12-11T02:46:45;80.07;;;32.42;;
21731;SDS011;11028;51.156;17.130;2022-12-11T02:54:04;82.35;;;31.80;;
21731;SDS011;11028;51.156;17.130;2022-12-11T03:01:22;78.78;;;32.67;;
21731;SDS011;11028;51.156;17.130;2022-12-11T03:08:39;74.50;;;32.53;;
21731;SDS011;11028;51.156;17.130;2022-12-11T03:16:00;79.82;;;31.83;;
21731;SDS011;11028;51.156;17.130;2022-12-11T03:23:23;74.00;;;31.08;;
21731;SDS011;11028;51.156;17.130;2022-12-11T03:30:44;82.45;;;31.42;;
21731;SDS011;11028;51.156;17.130;2022-12-11T03:38:04;74.50;;;30.77;;
21731;SDS011;11028;51.156;17.130;2022-12-11T03:45:23;77.00;;;31.33;;
21731;SDS011;11028;51.156;17.130;2022-12-11T03:52:41;81.32;;;31.55;;
21731;SDS011;11028;51.156;17.130;2022-12-11T04:00:00;74.03;;;29.65;;
21731;SDS011;11028;51.156;17.130;2022-12-11T04:07:27;75.53;;;29.30;;
21731;SDS011;11028;51.156;17.130;2022-12-11T04:14:45;80.25;;;31.65;;
21731;SDS011;11028;51.156;17.130;2022-12-11T04:22:19;77.28;;;30.35;;
21731;SDS011;11028;51.156;17.130;2022-12-11T04:29:53;71.68;;;29.40;;
21731;SDS011;11028;51.156;17.130;2022-12-11T04:37:10;79.10;;;29.80;;
21731;SDS011;11028;51.156;17.130;2022-12-11T04:44:28;74.05;;;30.58;;
21731;SDS011;11028;51.156;17.130;2022-12-11T04:51:45;69.65;;;30.15;;
21731;SDS011;11028;51.156;17.130;2022-12-11T04:59:03;80.60;;;32.03;;
21731;SDS011;11028;51.156;17.130;2022-12-11T05:06:21;72.05;;;32.05;;
21731;SDS011;11028;51.156;17.130;2022-12-11T05:13:38;75.47;;;32.30;;
21731;SDS011;11028;51.156;17.130;2022-12-11T05:20:55;78.10;;;32.42;;
21731;SDS011;11028;51.156;17.130;2022-12-11T05:28:14;70.45;;;30.02;;
21731;SDS011;11028;51.156;17.130;2022-12-11T05:35:31;62.83;;;27.17;;
21731;SDS011;11028;51.156;17.130;2022-12-11T05:42:48;60.35;;;27.95;;
21731;SDS011;11028;51.156;17.130;2022-12-11T05:50:07;70.18;;;29.02;;
21731;SDS011;11028;51.156;17.130;2022-12-11T05:57:25;61.42;;;27.15;;
21731;SDS011;11028;51.156;17.130;2022-12-11T06:04:42;57.50;;;27.42;;
21731;SDS011;11028;51.156;17.130;2022-12-11T06:12:00;54.40;;;26.23;;
21731;SDS011;11028;51.156;17.130;2022-12-11T06:19:17;57.40;;;26.15;;
21731;SDS011;11028;51.156;17.130;2022-12-11T06:26:34;58.17;;;26.73;;
21731;SDS011;11028;51.156;17.130;2022-12-11T06:33:52;57.08;;;26.13;;
21731;SDS011;11028;51.156;17.130;2022-12-11T06:41:09;53.28;;;25.70;;
21731;SDS011;11028;51.156;17.130;2022-12-11T06:48:26;58.78;;;24.85;;
21731;SDS011;11028;51.156;17.130;2022-12-11T06:55:45;51.00;;;22.77;;
21731;SDS011;11028;51.156;17.130;2022-12-11T07:03:02;55.38;;;24.23;;
21731;SDS011;11028;51.156;17.130;2022-12-11T07:10:19;54.45;;;23.42;;
21731;SDS011;11028;51.156;17.130;2022-12-11T07:17:38;55.30;;;25.13;;
21731;SDS011;11028;51.156;17.130;2022-12-11T07:24:55;57.05;;;24.33;;
21731;SDS011;11028;51.156;17.130;2022-12-11T07:32:12;51.38;;;24.27;;
21731;SDS011;11028;51.156;17.130;2022-12-11T07:39:30;49.25;;;23.75;;
21731;SDS011;11028;51.156;17.130;2022-12-11T07:46:47;109.22;;;32.08;;
21731;SDS011;11028;51.156;17.130;2022-12-11T07:54:04;51.35;;;23.35;;
21731;SDS011;11028;51.156;17.130;2022-12-11T08:01:26;47.00;;;22.67;;
21731;SDS011;11028;51.156;17.130;2022-12-11T08:08:44;82.60;;;28.33;;
21731;SDS011;11028;51.156;17.130;2022-12-11T08:16:02;52.72;;;23.85;;
21731;SDS011;11028;51.156;17.130;2022-12-11T08:23:20;51.75;;;22.92;;
21731;SDS011;11028;51.156;17.130;2022-12-11T08:30:38;66.55;;;25.02;;
21731;SDS011;11028;51.156;17.130;2022-12-11T08:37:55;45.50;;;21.52;;
21731;SDS011;11028;51.156;17.130;2022-12-11T08:45:13;110.38;;;37.40;;
21731;SDS011;11028;51.156;17.130;2022-12-11T08:52:30;46.10;;;19.80;;
21731;SDS011;11028;51.156;17.130;2022-12-11T08:59:50;47.15;;;19.98;;
21731;SDS011;11028;51.156;17.130;2022-12-11T09:07:08;44.55;;;19.08;;
21731;SDS011;11028;51.156;17.130;2022-12-11T09:14:26;46.78;;;21.08;;
21731;SDS011;11028;51.156;17.130;2022-12-11T09:21:43;44.28;;;19.15;;
21731;SDS011;11028;51.156;17.130;2022-12-11T09:29:02;41.35;;;18.23;;
21731;SDS011;11028;51.156;17.130;2022-12-11T09:36:20;48.30;;;21.15;;
21731;SDS011;11028;51.156;17.130;2022-12-11T09:43:38;44.22;;;20.60;;
21731;SDS011;11028;51.156;17.130;2022-12-11T09:50:59;79.43;;;24.33;;
21731;SDS011;11028;51.156;17.130;2022-12-11T09:58:21;40.42;;;19.13;;
21731;SDS011;11028;51.156;17.130;2022-12-11T10:05:42;44.75;;;22.45;;
21731;SDS011;11028;51.156;17.130;2022-12-11T10:13:05;50.42;;;23.00;;
21731;SDS011;11028;51.156;17.130;2022-12-11T10:20:34;49.38;;;23.15;;
21731;SDS011;11028;51.156;17.130;2022-12-11T10:27:53;53.22;;;23.80;;
21731;SDS011;11028;51.156;17.130;2022-12-11T10:35:18;39.83;;;21.58;;
21731;SDS011;11028;51.156;17.130;2022-12-11T10:42:50;53.58;;;24.00;;
21731;SDS011;11028;51.156;17.130;2022-12-11T10:50:20;36.28;;;18.65;;
21731;SDS011;11028;51.156;17.130;2022-12-11T10:57:40;28.67;;;16.57;;
21731;SDS011;11028;51.156;17.130;2022-12-11T11:04:57;26.60;;;14.57;;
21731;SDS011;11028;51.156;17.130;2022-12-11T11:12:18;28.85;;;15.70;;
21731;SDS011;11028;51.156;17.130;2022-12-11T11:19:37;31.17;;;16.55;;
21731;SDS011;11028;51.156;17.130;2022-12-11T11:26:55;35.08;;;17.55;;
21731;SDS011;11028;51.156;17.130;2022-12-11T11:34:15;58.00;;;24.52;;
21731;SDS011;11028;51.156;17.130;2022-12-11T11:41:37;63.30;;;29.00;;
21731;SDS011;11028;51.156;17.130;2022-12-11T11:49:02;52.50;;;24.47;;
21731;SDS011;11028;51.156;17.130;2022-12-11T11:56:24;38.57;;;19.87;;
21731;SDS011;11028;51.156;17.130;2022-12-11T12:03:42;45.95;;;19.60;;
21731;SDS011;11028;51.156;17.130;2022-12-11T12:11:00;28.65;;;15.55;;
21731;SDS011;11028;51.156;17.130;2022-12-11T12:18:28;34.38;;;18.35;;
21731;SDS011;11028;51.156;17.130;2022-12-11T12:25:51;32.17;;;16.27;;
21731;SDS011;11028;51.156;17.130;2022-12-11T12:33:14;32.20;;;17.02;;
21731;SDS011;11028;51.156;17.130;2022-12-11T12:40:42;33.60;;;16.73;;
21731;SDS011;11028;51.156;17.130;2022-12-11T12:48:05;31.88;;;15.20;;
21731;SDS011;11028;51.156;17.130;2022-12-11T12:55:24;37.50;;;17.65;;
21731;SDS011;11028;51.156;17.130;2022-12-11T13:02:48;28.83;;;15.23;;
21731;SDS011;11028;51.156;17.130;2022-12-11T13:10:06;28.33;;;14.98;;
21731;SDS011;11028;51.156;17.130;2022-12-11T13:17:37;32.88;;;16.35;;
21731;SDS011;11028;51.156;17.130;2022-12-11T13:24:58;25.60;;;14.43;;
21731;SDS011;11028;51.156;17.130;2022-12-11T13:32:21;28.17;;;13.90;;
21731;SDS011;11028;51.156;17.130;2022-12-11T13:39:39;32.65;;;16.25;;
21731;SDS011;11028;51.156;17.130;2022-12-11T13:47:03;28.83;;;14.37;;
21731;SDS011;11028;51.156;17.130;2022-12-11T13:54:21;22.50;;;11.85;;
21731;SDS011;11028;51.156;17.130;2022-12-11T14:01:38;24.60;;;12.32;;
21731;SDS011;11028;51.156;17.130;2022-12-11T14:08:57;21.25;;;12.50;;
21731;SDS011;11028;51.156;17.130;2022-12-11T14:16:18;24.35;;;13.25;;
21731;SDS011;11028;51.156;17.130;2022-12-11T14:23:37;28.23;;;13.30;;
21731;SDS011;11028;51.156;17.130;2022-12-11T14:30:56;25.75;;;13.20;;
21731;SDS011;11028;51.156;17.130;2022-12-11T14:38:14;21.42;;;12.32;;
21731;SDS011;11028;51.156;17.130;2022-12-11T14:45:34;22.85;;;11.10;;
21731;SDS011;11028;51.156;17.130;2022-12-11T14:52:54;26.10;;;12.50;;
21731;SDS011;11028;51.156;17.130;2022-12-11T15:00:21;23.00;;;10.88;;
21731;SDS011;11028;51.156;17.130;2022-12-11T15:07:40;23.40;;;12.15;;
21731;SDS011;11028;51.156;17.130;2022-12-11T15:15:02;24.98;;;12.77;;
21731;SDS011;11028;51.156;17.130;2022-12-11T15:22:21;24.10;;;13.57;;
21731;SDS011;11028;51.156;17.130;2022-12-11T15:29:39;22.90;;;12.68;;
21731;SDS011;11028;51.156;17.130;2022-12-11T15:36:57;24.17;;;13.85;;
21731;SDS011;11028;51.156;17.130;2022-12-11T15:44:15;59.58;;;25.38;;
21731;SDS011;11028;51.156;17.130;2022-12-11T15:51:33;24.67;;;13.80;;
21731;SDS011;11028;51.156;17.130;2022-12-11T15:58:52;32.28;;;15.27;;
21731;SDS011;11028;51.156;17.130;2022-12-11T16:06:09;25.67;;;14.02;;
21731;SDS011;11028;51.156;17.130;2022-12-11T16:13:26;30.17;;;14.52;;
21731;SDS011;11028;51.156;17.130;2022-12-11T16:20:44;24.00;;;12.70;;
21731;SDS011;11028;51.156;17.130;2022-12-11T16:28:02;20.85;;;10.27;;
21731;SDS011;11028;51.156;17.130;2022-12-11T16:35:19;23.63;;;12.65;;
21731;SDS011;11028;51.156;17.130;2022-12-11T16:42:38;24.95;;;12.15;;
21731;SDS011;11028;51.156;17.130;2022-12-11T16:49:56;23.23;;;11.60;;
21731;SDS011;11028;51.156;17.130;2022-12-11T16:57:14;22.75;;;11.35;;
21731;SDS011;11028;51.156;17.130;2022-12-11T17:04:33;26.33;;;13.52;;
21731;SDS011;11028;51.156;17.130;2022-12-11T17:11:49;24.30;;;12.75;;
21731;SDS011;11028;51.156;17.130;2022-12-11T17:19:06;29.13;;;14.35;;
21731;SDS011;11028;51.156;17.130;2022-12-11T17:26:24;26.40;;;13.20;;
21731;SDS011;11028;51.156;17.130;2022-12-11T17:33:42;26.70;;;13.57;;
21731;SDS011;11028;51.156;17.130;2022-12-11T17:41:03;29.65;;;14.57;;
21731;SDS011;11028;51.156;17.130;2022-12-11T17:48:23;32.03;;;15.48;;
21731;SDS011;11028;51.156;17.130;2022-12-11T17:55:40;29.23;;;13.98;;
21731;SDS011;11028;51.156;17.130;2022-12-11T18:02:58;30.60;;;14.52;;
21731;SDS011;11028;51.156;17.130;2022-12-11T18:10:17;28.98;;;15.45;;
21731;SDS011;11028;51.156;17.130;2022-12-11T18:17:34;31.42;;;16.10;;
21731;SDS011;11028;51.156;17.130;2022-12-11T18:24:51;31.65;;;16.05;;
21731;SDS011;11028;51.156;17.130;2022-12-11T18:32:10;33.13;;;14.70;;
21731;SDS011;11028;51.156;17.130;2022-12-11T18:39:27;30.02;;;15.35;;
21731;SDS011;11028;51.156;17.130;2022-12-11T18:46:43;33.25;;;15.93;;
21731;SDS011;11028;51.156;17.130;2022-12-11T18:54:02;37.60;;;17.63;;
21731;SDS011;11028;51.156;17.130;2022-12-11T19:01:19;34.92;;;16.85;;
21731;SDS011;11028;51.156;17.130;2022-12-11T19:08:39;36.60;;;17.10;;
21731;SDS011;11028;51.156;17.130;2022-12-11T19:15:58;38.38;;;18.42;;
21731;SDS011;11028;51.156;17.130;2022-12-11T19:23:15;39.17;;;17.30;;
21731;SDS011;11028;51.156;17.130;2022-12-11T19:30:32;37.97;;;18.20;;
21731;SDS011;11028;51.156;17.130;2022-12-11T19:37:50;32.40;;;16.67;;
21731;SDS011;11028;51.156;17.130;2022-12-11T19:45:07;36.35;;;17.15;;
21731;SDS011;11028;51.156;17.130;2022-12-11T19:52:25;38.22;;;18.33;;
21731;SDS011;11028;51.156;17.130;2022-12-11T19:59:43;40.03;;;17.05;;
21731;SDS011;11028;51.156;17.130;2022-12-11T20:07:01;33.55;;;16.45;;
21731;SDS011;11028;51.156;17.130;2022-12-11T20:14:19;35.15;;;17.33;;
21731;SDS011;11028;51.156;17.130;2022-12-11T20:21:39;41.35;;;19.30;;
21731;SDS011;11028;51.156;17.130;2022-12-11T20:28:56;39.13;;;18.17;;
21731;SDS011;11028;51.156;17.130;2022-12-11T20:36:13;43.33;;;21.15;;
21731;SDS011;11028;51.156;17.130;2022-12-11T20:43:32;35.50;;;17.58;;
21731;SDS011;11028;51.156;17.130;2022-12-11T20:50:49;43.30;;;19.48;;
21731;SDS011;11028;51.156;17.130;2022-12-11T20:58:06;45.67;;;19.73;;
21731;SDS011;11028;51.156;17.130;2022-12-11T21:05:25;36.08;;;16.63;;
21731;SDS011;11028;51.156;17.130;2022-12-11T21:12:43;38.90;;;18.25;;
21731;SDS011;11028;51.156;17.130;2022-12-11T21:20:00;44.95;;;19.27;;
21731;SDS011;11028;51.156;17.130;2022-12-11T21:27:18;43.83;;;19.25;;
21731;SDS011;11028;51.156;17.130;2022-12-11T21:34:37;44.67;;;19.95;;
21731;SDS011;11028;51.156;17.130;2022-12-11T21:41:54;39.22;;;18.13;;
21731;SDS011;11028;51.156;17.130;2022-12-11T21:49:13;45.72;;;20.27;;
21731;SDS011;11028;51.156;17.130;2022-12-11T21:56:30;45.83;;;19.80;;
21731;SDS011;11028;51.156;17.130;2022-12-11T22:03:48;40.30;;;18.42;;
21731;SDS011;11028;51.156;17.130;2022-12-11T22:11:07;43.75;;;19.45;;
21731;SDS011;11028;51.156;17.130;2022-12-11T22:18:24;48.75;;;19.23;;
21731;SDS011;11028;51.156;17.130;2022-12-11T22:25:42;41.83;;;20.00;;
21731;SDS011;11028;51.156;17.130;2022-12-11T22:33:00;43.95;;;19.98;;
21731;SDS011;11028;51.156;17.130;2022-12-11T22:40:17;43.78;;;19.33;;
21731;SDS011;11028;51.156;17.130;2022-12-11T22:47:34;42.28;;;19.42;;
21731;SDS011;11028;51.156;17.130;2022-12-11T22:54:53;55.10;;;24.27;;
21731;SDS011;11028;51.156;17.130;2022-12-11T23:02:10;51.42;;;21.50;;
21731;SDS011;11028;51.156;17.130;2022-12-11T23:09:27;44.33;;;20.00;;
21731;SDS011;11028;51.156;17.130;2022-12-11T23:16:46;49.17;;;21.40;;
21731;SDS011;11028;51.156;17.130;2022-12-11T23:24:03;48.28;;;19.83;;
21731;SDS011;11028;51.156;17.130;2022-12-11T23:31:21;52.60;;;19.67;;
21731;SDS011;11028;51.156;17.130;2022-12-11T23:38:40;50.92;;;22.15;;
21731;SDS011;11028;51.156;17.130;2022-12-11T23:45:57;54.53;;;20.40;;
21731;SDS011;11028;51.156;17.130;2022-12-11T23:53:14;49.03;;;19.88;;
